sensor_id;sensor_type;location;lat;lon;timestamp;temperature;humidity
72762;SHT30;60886;55.034;73.150;2023-03-20T00:01:57;-11.91;58.97
72762;SHT30;60886;55.034;73.150;2023-03-20T00:05:01;-11.91;59.28
72762;SHT30;60886;55.034;73.150;2023-03-20T00:08:05;-11.98;59.45
72762;SHT30;60886;55.034;73.150;2023-03-20T00:11:31;-12.25;59.45
72762;SHT30;60886;55.034;73.150;2023-03-20T00:14:43;-12.38;60.29
72762;SHT30;60886;55.034;73.150;2023-03-20T00:17:46;-12.56;61.90
72762;SHT30;60886;55.034;73.150;2023-03-20T00:20:58;-12.59;62.39
72762;SHT30;60886;55.034;73.150;2023-03-20T00:24:11;-12.60;62.91
72762;SHT30;60886;55.034;73.150;2023-03-20T00:27:16;-12.59;62.82
72762;SHT30;60886;55.034;73.150;2023-03-20T00:30:23;-12.60;62.98
72762;SHT30;60886;55.034;73.150;2023-03-20T00:33:36;-12.44;62.47
72762;SHT30;60886;55.034;73.150;2023-03-20T00:36:38;-12.55;63.41
72762;SHT30;60886;55.034;73.150;2023-03-20T00:39:51;-12.46;62.36
72762;SHT30;60886;55.034;73.150;2023-03-20T00:42:58;-12.31;61.48
72762;SHT30;60886;55.034;73.150;2023-03-20T00:46:00;-12.41;61.64
72762;SHT30;60886;55.034;73.150;2023-03-20T00:49:02;-12.34;61.60
72762;SHT30;60886;55.034;73.150;2023-03-20T00:52:04;-12.53;60.76
72762;SHT30;60886;55.034;73.150;2023-03-20T00:55:06;-12.66;60.97
72762;SHT30;60886;55.034;73.150;2023-03-20T00:58:14;-12.66;61.20
72762;SHT30;60886;55.034;73.150;2023-03-20T01:01:25;-12.73;60.06
72762;SHT30;60886;55.034;73.150;2023-03-20T01:04:39;-12.81;60.58
72762;SHT30;60886;55.034;73.150;2023-03-20T01:07:46;-12.80;60.71
72762;SHT30;60886;55.034;73.150;2023-03-20T01:10:58;-12.83;61.03
72762;SHT30;60886;55.034;73.150;2023-03-20T01:14:00;-12.97;62.07
72762;SHT30;60886;55.034;73.150;2023-03-20T01:17:02;-13.06;62.08
72762;SHT30;60886;55.034;73.150;2023-03-20T01:20:13;-12.97;62.08
72762;SHT30;60886;55.034;73.150;2023-03-20T01:23:20;-12.86;62.57
72762;SHT30;60886;55.034;73.150;2023-03-20T01:26:34;-12.63;62.25
72762;SHT30;60886;55.034;73.150;2023-03-20T01:29:43;-12.56;62.22
72762;SHT30;60886;55.034;73.150;2023-03-20T01:32:45;-12.44;62.23
72762;SHT30;60886;55.034;73.150;2023-03-20T01:35:48;-12.32;62.20
72762;SHT30;60886;55.034;73.150;2023-03-20T01:38:54;-12.25;62.95
72762;SHT30;60886;55.034;73.150;2023-03-20T01:41:57;-12.10;62.93
72762;SHT30;60886;55.034;73.150;2023-03-20T01:45:12;-12.11;62.68
72762;SHT30;60886;55.034;73.150;2023-03-20T01:48:54;-12.12;62.85
72762;SHT30;60886;55.034;73.150;2023-03-20T01:52:00;-11.94;63.07
72762;SHT30;60886;55.034;73.150;2023-03-20T01:55:06;-11.77;62.15
72762;SHT30;60886;55.034;73.150;2023-03-20T01:58:18;-11.77;61.69
72762;SHT30;60886;55.034;73.150;2023-03-20T02:01:23;-11.69;61.08
72762;SHT30;60886;55.034;73.150;2023-03-20T02:04:28;-11.75;60.87
72762;SHT30;60886;55.034;73.150;2023-03-20T02:07:38;-11.78;61.45
72762;SHT30;60886;55.034;73.150;2023-03-20T02:10:48;-11.66;61.77
72762;SHT30;60886;55.034;73.150;2023-03-20T02:14:00;-11.51;61.89
72762;SHT30;60886;55.034;73.150;2023-03-20T02:17:09;-11.30;61.63
72762;SHT30;60886;55.034;73.150;2023-03-20T02:20:42;-11.18;61.39
72762;SHT30;60886;55.034;73.150;2023-03-20T02:31:09;-11.20;56.60
72762;SHT30;60886;55.034;73.150;2023-03-20T02:48:22;-10.67;58.93
72762;SHT30;60886;55.034;73.150;2023-03-20T02:51:43;-10.48;60.17
72762;SHT30;60886;55.034;73.150;2023-03-20T02:55:01;-10.13;60.85
72762;SHT30;60886;55.034;73.150;2023-03-20T02:58:27;-9.70;62.53
72762;SHT30;60886;55.034;73.150;2023-03-20T03:01:42;-9.41;61.41
72762;SHT30;60886;55.034;73.150;2023-03-20T03:04:57;-9.30;60.82
72762;SHT30;60886;55.034;73.150;2023-03-20T03:08:11;-9.27;59.99
72762;SHT30;60886;55.034;73.150;2023-03-20T03:11:14;-9.38;60.21
72762;SHT30;60886;55.034;73.150;2023-03-20T03:14:31;-9.45;60.80
72762;SHT30;60886;55.034;73.150;2023-03-20T03:17:43;-9.32;61.33
72762;SHT30;60886;55.034;73.150;2023-03-20T03:20:47;-9.10;60.11
72762;SHT30;60886;55.034;73.150;2023-03-20T03:23:51;-9.05;59.47
72762;SHT30;60886;55.034;73.150;2023-03-20T03:26:53;-9.27;60.06
72762;SHT30;60886;55.034;73.150;2023-03-20T03:30:02;-9.18;61.26
72762;SHT30;60886;55.034;73.150;2023-03-20T03:33:18;-8.89;60.27
72762;SHT30;60886;55.034;73.150;2023-03-20T03:40:02;-8.71;59.09
72762;SHT30;60886;55.034;73.150;2023-03-20T03:43:25;-8.67;59.72
72762;SHT30;60886;55.034;73.150;2023-03-20T03:46:30;-8.21;59.80
72762;SHT30;60886;55.034;73.150;2023-03-20T03:49:48;-8.32;58.17
72762;SHT30;60886;55.034;73.150;2023-03-20T03:52:52;-8.29;59.04
72762;SHT30;60886;55.034;73.150;2023-03-20T03:55:59;-7.99;58.62
72762;SHT30;60886;55.034;73.150;2023-03-20T03:59:06;-7.97;57.31
72762;SHT30;60886;55.034;73.150;2023-03-20T04:02:11;-7.88;58.05
72762;SHT30;60886;55.034;73.150;2023-03-20T04:05:17;-7.93;57.37
72762;SHT30;60886;55.034;73.150;2023-03-20T04:08:20;-7.78;58.48
72762;SHT30;60886;55.034;73.150;2023-03-20T04:11:23;-7.53;57.52
72762;SHT30;60886;55.034;73.150;2023-03-20T04:14:29;-7.13;57.68
72762;SHT30;60886;55.034;73.150;2023-03-20T04:17:30;-7.23;56.35
72762;SHT30;60886;55.034;73.150;2023-03-20T04:20:32;-7.34;57.26
72762;SHT30;60886;55.034;73.150;2023-03-20T04:23:33;-7.47;56.82
72762;SHT30;60886;55.034;73.150;2023-03-20T04:26:36;-7.32;57.07
72762;SHT30;60886;55.034;73.150;2023-03-20T04:29:43;-7.08;57.00
72762;SHT30;60886;55.034;73.150;2023-03-20T04:33:14;-7.23;56.44
72762;SHT30;60886;55.034;73.150;2023-03-20T04:36:44;-7.02;56.88
72762;SHT30;60886;55.034;73.150;2023-03-20T04:39:50;-6.84;56.06
72762;SHT30;60886;55.034;73.150;2023-03-20T04:42:52;-6.74;56.27
72762;SHT30;60886;55.034;73.150;2023-03-20T04:45:53;-6.71;57.15
72762;SHT30;60886;55.034;73.150;2023-03-20T04:48:55;-6.27;56.08
72762;SHT30;60886;55.034;73.150;2023-03-20T04:52:01;-5.89;54.86
72762;SHT30;60886;55.034;73.150;2023-03-20T04:55:12;-5.31;54.54
72762;SHT30;60886;55.034;73.150;2023-03-20T04:58:14;-5.69;52.96
72762;SHT30;60886;55.034;73.150;2023-03-20T05:01:15;-5.36;54.21
72762;SHT30;60886;55.034;73.150;2023-03-20T05:04:17;-5.35;52.44
72762;SHT30;60886;55.034;73.150;2023-03-20T05:07:18;-5.29;54.54
72762;SHT30;60886;55.034;73.150;2023-03-20T05:10:28;-5.18;52.51
72762;SHT30;60886;55.034;73.150;2023-03-20T05:13:43;-4.93;51.24
72762;SHT30;60886;55.034;73.150;2023-03-20T05:17:18;-5.49;52.03
72762;SHT30;60886;55.034;73.150;2023-03-20T05:20:51;-5.47;54.15
72762;SHT30;60886;55.034;73.150;2023-03-20T05:24:06;-5.32;54.79
72762;SHT30;60886;55.034;73.150;2023-03-20T05:27:22;-4.90;53.18
72762;SHT30;60886;55.034;73.150;2023-03-20T05:30:36;-4.70;51.77
72762;SHT30;60886;55.034;73.150;2023-03-20T05:33:58;-4.49;52.52
72762;SHT30;60886;55.034;73.150;2023-03-20T05:37:10;-4.42;51.36
72762;SHT30;60886;55.034;73.150;2023-03-20T05:40:30;-4.19;51.76
72762;SHT30;60886;55.034;73.150;2023-03-20T05:43:55;-3.75;51.73
72762;SHT30;60886;55.034;73.150;2023-03-20T05:47:26;-3.34;50.48
72762;SHT30;60886;55.034;73.150;2023-03-20T05:50:51;-3.16;49.82
72762;SHT30;60886;55.034;73.150;2023-03-20T05:54:15;-3.32;49.92
72762;SHT30;60886;55.034;73.150;2023-03-20T05:57:49;-2.96;49.93
72762;SHT30;60886;55.034;73.150;2023-03-20T06:01:16;-2.95;48.39
72762;SHT30;60886;55.034;73.150;2023-03-20T06:04:42;-2.92;48.97
72762;SHT30;60886;55.034;73.150;2023-03-20T06:08:13;-2.26;48.19
72762;SHT30;60886;55.034;73.150;2023-03-20T06:11:16;-2.06;45.89
72762;SHT30;60886;55.034;73.150;2023-03-20T06:14:18;-1.67;44.69
72762;SHT30;60886;55.034;73.150;2023-03-20T06:17:27;-1.72;45.48
72762;SHT30;60886;55.034;73.150;2023-03-20T06:20:36;-1.45;45.23
72762;SHT30;60886;55.034;73.150;2023-03-20T06:23:39;-1.21;43.61
72762;SHT30;60886;55.034;73.150;2023-03-20T06:26:41;-1.19;42.77
72762;SHT30;60886;55.034;73.150;2023-03-20T06:29:55;-1.02;45.79
72762;SHT30;60886;55.034;73.150;2023-03-20T06:33:06;-1.80;46.84
72762;SHT30;60886;55.034;73.150;2023-03-20T06:36:16;-1.56;46.24
72762;SHT30;60886;55.034;73.150;2023-03-20T06:39:18;-1.80;45.93
72762;SHT30;60886;55.034;73.150;2023-03-20T06:42:19;-1.60;46.80
72762;SHT30;60886;55.034;73.150;2023-03-20T06:45:24;-1.22;46.67
72762;SHT30;60886;55.034;73.150;2023-03-20T06:48:48;-1.15;46.13
72762;SHT30;60886;55.034;73.150;2023-03-20T06:51:50;-0.83;48.42
72762;SHT30;60886;55.034;73.150;2023-03-20T06:54:58;-0.74;45.14
72762;SHT30;60886;55.034;73.150;2023-03-20T06:57:59;-0.71;45.84
72762;SHT30;60886;55.034;73.150;2023-03-20T07:01:08;-0.70;45.54
72762;SHT30;60886;55.034;73.150;2023-03-20T07:04:10;-0.49;45.48
72762;SHT30;60886;55.034;73.150;2023-03-20T07:07:18;-0.54;45.36
72762;SHT30;60886;55.034;73.150;2023-03-20T07:10:31;-0.67;44.10
72762;SHT30;60886;55.034;73.150;2023-03-20T07:13:33;-0.77;44.63
72762;SHT30;60886;55.034;73.150;2023-03-20T07:16:42;-0.57;45.67
72762;SHT30;60886;55.034;73.150;2023-03-20T07:19:43;-0.58;44.60
72762;SHT30;60886;55.034;73.150;2023-03-20T07:22:46;-0.66;43.87
72762;SHT30;60886;55.034;73.150;2023-03-20T07:25:55;-0.46;44.39
72762;SHT30;60886;55.034;73.150;2023-03-20T07:28:57;-0.46;44.67
72762;SHT30;60886;55.034;73.150;2023-03-20T07:32:05;-0.36;42.08
72762;SHT30;60886;55.034;73.150;2023-03-20T07:35:16;-0.47;42.27
72762;SHT30;60886;55.034;73.150;2023-03-20T07:38:19;-0.52;44.04
72762;SHT30;60886;55.034;73.150;2023-03-20T07:41:30;-0.41;43.55
72762;SHT30;60886;55.034;73.150;2023-03-20T07:44:42;-0.25;42.73
72762;SHT30;60886;55.034;73.150;2023-03-20T07:47:45;-0.15;40.41
72762;SHT30;60886;55.034;73.150;2023-03-20T07:50:48;-0.06;39.76
72762;SHT30;60886;55.034;73.150;2023-03-20T07:53:50;0.09;40.09
72762;SHT30;60886;55.034;73.150;2023-03-20T07:56:51;0.24;40.35
72762;SHT30;60886;55.034;73.150;2023-03-20T07:59:53;0.19;41.66
72762;SHT30;60886;55.034;73.150;2023-03-20T08:02:54;0.39;40.67
72762;SHT30;60886;55.034;73.150;2023-03-20T08:06:01;0.09;36.78
72762;SHT30;60886;55.034;73.150;2023-03-20T08:09:12;0.30;41.41
72762;SHT30;60886;55.034;73.150;2023-03-20T08:12:13;0.29;39.57
72762;SHT30;60886;55.034;73.150;2023-03-20T08:15:16;0.44;38.81
72762;SHT30;60886;55.034;73.150;2023-03-20T08:18:18;0.11;40.39
72762;SHT30;60886;55.034;73.150;2023-03-20T08:21:23;0.24;38.86
72762;SHT30;60886;55.034;73.150;2023-03-20T08:24:24;0.02;38.78
72762;SHT30;60886;55.034;73.150;2023-03-20T08:27:26;-0.07;39.25
72762;SHT30;60886;55.034;73.150;2023-03-20T08:30:28;0.07;38.19
72762;SHT30;60886;55.034;73.150;2023-03-20T08:33:30;0.02;39.32
72762;SHT30;60886;55.034;73.150;2023-03-20T08:36:41;0.22;38.78
72762;SHT30;60886;55.034;73.150;2023-03-20T08:39:43;0.44;38.11
72762;SHT30;60886;55.034;73.150;2023-03-20T08:42:44;0.42;38.81
72762;SHT30;60886;55.034;73.150;2023-03-20T08:45:46;0.48;40.71
72762;SHT30;60886;55.034;73.150;2023-03-20T08:48:56;0.49;36.43
72762;SHT30;60886;55.034;73.150;2023-03-20T08:51:59;0.48;35.65
72762;SHT30;60886;55.034;73.150;2023-03-20T08:55:10;0.42;37.17
72762;SHT30;60886;55.034;73.150;2023-03-20T08:58:12;0.22;36.03
72762;SHT30;60886;55.034;73.150;2023-03-20T09:01:23;0.35;37.01
72762;SHT30;60886;55.034;73.150;2023-03-20T09:04:25;0.17;37.95
72762;SHT30;60886;55.034;73.150;2023-03-20T09:07:28;0.24;38.53
72762;SHT30;60886;55.034;73.150;2023-03-20T09:10:36;0.29;38.72
72762;SHT30;60886;55.034;73.150;2023-03-20T09:13:38;0.22;40.76
72762;SHT30;60886;55.034;73.150;2023-03-20T09:16:40;0.28;37.40
72762;SHT30;60886;55.034;73.150;2023-03-20T09:19:42;0.32;37.75
72762;SHT30;60886;55.034;73.150;2023-03-20T09:22:44;0.49;35.85
72762;SHT30;60886;55.034;73.150;2023-03-20T09:25:56;0.50;36.11
72762;SHT30;60886;55.034;73.150;2023-03-20T09:28:59;0.56;36.48
72762;SHT30;60886;55.034;73.150;2023-03-20T09:32:01;0.56;37.10
72762;SHT30;60886;55.034;73.150;2023-03-20T09:35:05;0.59;35.26
72762;SHT30;60886;55.034;73.150;2023-03-20T09:38:07;0.46;35.89
72762;SHT30;60886;55.034;73.150;2023-03-20T09:41:23;0.45;35.71
72762;SHT30;60886;55.034;73.150;2023-03-20T09:48:10;0.29;36.26
72762;SHT30;60886;55.034;73.150;2023-03-20T09:54:44;0.58;36.25
72762;SHT30;60886;55.034;73.150;2023-03-20T09:57:56;0.39;35.18
72762;SHT30;60886;55.034;73.150;2023-03-20T10:01:00;0.26;38.66
72762;SHT30;60886;55.034;73.150;2023-03-20T10:04:11;0.28;38.21
72762;SHT30;60886;55.034;73.150;2023-03-20T10:07:15;0.35;37.85
72762;SHT30;60886;55.034;73.150;2023-03-20T10:20:20;0.11;38.18
72762;SHT30;60886;55.034;73.150;2023-03-20T10:23:34;0.19;38.69
72762;SHT30;60886;55.034;73.150;2023-03-20T10:26:37;0.01;38.50
72762;SHT30;60886;55.034;73.150;2023-03-20T10:37:27;-0.34;38.61
72762;SHT30;60886;55.034;73.150;2023-03-20T10:40:42;-0.41;38.34
72762;SHT30;60886;55.034;73.150;2023-03-20T10:43:46;-0.30;39.55
72762;SHT30;60886;55.034;73.150;2023-03-20T10:46:51;-0.54;38.53
72762;SHT30;60886;55.034;73.150;2023-03-20T10:49:57;-0.46;39.41
72762;SHT30;60886;55.034;73.150;2023-03-20T10:53:02;-0.84;41.42
72762;SHT30;60886;55.034;73.150;2023-03-20T10:56:07;-0.77;42.80
72762;SHT30;60886;55.034;73.150;2023-03-20T10:59:41;-1.48;41.83
72762;SHT30;60886;55.034;73.150;2023-03-20T11:02:44;-1.43;42.61
72762;SHT30;60886;55.034;73.150;2023-03-20T11:05:50;-1.63;43.22
72762;SHT30;60886;55.034;73.150;2023-03-20T11:08:54;-1.91;44.44
72762;SHT30;60886;55.034;73.150;2023-03-20T11:11:56;-1.87;45.23
72762;SHT30;60886;55.034;73.150;2023-03-20T11:14:59;-1.66;42.48
72762;SHT30;60886;55.034;73.150;2023-03-20T11:18:06;-1.87;42.74
72762;SHT30;60886;55.034;73.150;2023-03-20T11:21:25;-1.76;44.22
72762;SHT30;60886;55.034;73.150;2023-03-20T11:24:38;-1.74;42.67
72762;SHT30;60886;55.034;73.150;2023-03-20T11:27:45;-1.93;43.51
72762;SHT30;60886;55.034;73.150;2023-03-20T11:30:47;-1.91;43.65
72762;SHT30;60886;55.034;73.150;2023-03-20T11:34:20;-2.17;44.74
72762;SHT30;60886;55.034;73.150;2023-03-20T11:37:32;-2.11;44.11
72762;SHT30;60886;55.034;73.150;2023-03-20T11:40:34;-2.07;44.63
72762;SHT30;60886;55.034;73.150;2023-03-20T11:43:37;-2.06;45.20
72762;SHT30;60886;55.034;73.150;2023-03-20T11:46:43;-1.97;44.33
72762;SHT30;60886;55.034;73.150;2023-03-20T11:49:56;-2.26;43.39
72762;SHT30;60886;55.034;73.150;2023-03-20T11:53:02;-2.86;45.53
72762;SHT30;60886;55.034;73.150;2023-03-20T11:56:06;-2.92;45.98
72762;SHT30;60886;55.034;73.150;2023-03-20T11:59:13;-2.79;45.32
72762;SHT30;60886;55.034;73.150;2023-03-20T12:02:26;-2.82;45.75
72762;SHT30;60886;55.034;73.150;2023-03-20T12:05:36;-2.91;45.85
72762;SHT30;60886;55.034;73.150;2023-03-20T12:08:55;-3.13;46.51
72762;SHT30;60886;55.034;73.150;2023-03-20T12:18:34;-3.03;45.96
72762;SHT30;60886;55.034;73.150;2023-03-20T12:22:20;-2.88;46.08
72762;SHT30;60886;55.034;73.150;2023-03-20T12:25:26;-2.93;46.38
72762;SHT30;60886;55.034;73.150;2023-03-20T12:28:39;-2.89;46.76
72762;SHT30;60886;55.034;73.150;2023-03-20T12:32:04;-2.89;46.35
72762;SHT30;60886;55.034;73.150;2023-03-20T12:35:29;-3.06;47.30
72762;SHT30;60886;55.034;73.150;2023-03-20T12:38:32;-3.24;46.76
72762;SHT30;60886;55.034;73.150;2023-03-20T12:45:19;-3.23;48.33
72762;SHT30;60886;55.034;73.150;2023-03-20T12:48:48;-3.60;48.21
72762;SHT30;60886;55.034;73.150;2023-03-20T13:02:17;-3.64;51.55
72762;SHT30;60886;55.034;73.150;2023-03-20T13:05:35;-3.68;51.21
72762;SHT30;60886;55.034;73.150;2023-03-20T13:18:57;-4.01;53.34
72762;SHT30;60886;55.034;73.150;2023-03-20T13:22:24;-4.19;54.22
72762;SHT30;60886;55.034;73.150;2023-03-20T13:40:02;-4.73;57.34
72762;SHT30;60886;55.034;73.150;2023-03-20T13:46:34;-4.88;58.70
72762;SHT30;60886;55.034;73.150;2023-03-20T13:50:44;-5.04;59.35
72762;SHT30;60886;55.034;73.150;2023-03-20T13:58:13;-5.22;60.55
72762;SHT30;60886;55.034;73.150;2023-03-20T14:01:49;-5.24;61.28
72762;SHT30;60886;55.034;73.150;2023-03-20T14:05:10;-5.17;61.02
72762;SHT30;60886;55.034;73.150;2023-03-20T14:08:21;-5.19;61.15
72762;SHT30;60886;55.034;73.150;2023-03-20T14:11:35;-5.03;60.67
72762;SHT30;60886;55.034;73.150;2023-03-20T14:15:03;-5.22;61.03
72762;SHT30;60886;55.034;73.150;2023-03-20T14:18:16;-5.29;61.86
72762;SHT30;60886;55.034;73.150;2023-03-20T14:21:24;-5.42;62.67
72762;SHT30;60886;55.034;73.150;2023-03-20T14:24:57;-5.36;62.27
72762;SHT30;60886;55.034;73.150;2023-03-20T14:31:35;-5.40;63.47
72762;SHT30;60886;55.034;73.150;2023-03-20T14:38:31;-5.60;64.19
72762;SHT30;60886;55.034;73.150;2023-03-20T14:45:40;-5.73;64.79
72762;SHT30;60886;55.034;73.150;2023-03-20T14:48:53;-5.79;65.38
72762;SHT30;60886;55.034;73.150;2023-03-20T14:59:05;-5.79;66.11
72762;SHT30;60886;55.034;73.150;2023-03-20T15:02:26;-5.78;66.30
72762;SHT30;60886;55.034;73.150;2023-03-20T15:05:44;-5.72;66.03
72762;SHT30;60886;55.034;73.150;2023-03-20T15:09:06;-5.82;66.68
72762;SHT30;60886;55.034;73.150;2023-03-20T15:12:15;-5.92;66.91
72762;SHT30;60886;55.034;73.150;2023-03-20T15:15:27;-6.00;67.07
72762;SHT30;60886;55.034;73.150;2023-03-20T15:18:50;-6.14;67.55
72762;SHT30;60886;55.034;73.150;2023-03-20T15:21:56;-6.02;67.80
72762;SHT30;60886;55.034;73.150;2023-03-20T15:25:04;-5.86;67.21
72762;SHT30;60886;55.034;73.150;2023-03-20T15:28:12;-5.86;67.02
72762;SHT30;60886;55.034;73.150;2023-03-20T15:31:27;-5.86;67.29
72762;SHT30;60886;55.034;73.150;2023-03-20T15:34:43;-5.87;67.04
72762;SHT30;60886;55.034;73.150;2023-03-20T15:37:57;-5.75;67.01
72762;SHT30;60886;55.034;73.150;2023-03-20T15:41:31;-5.80;66.85
72762;SHT30;60886;55.034;73.150;2023-03-20T15:44:44;-5.68;66.28
72762;SHT30;60886;55.034;73.150;2023-03-20T15:47:48;-5.54;66.07
72762;SHT30;60886;55.034;73.150;2023-03-20T15:50:53;-5.56;65.74
72762;SHT30;60886;55.034;73.150;2023-03-20T15:53:56;-5.63;65.48
72762;SHT30;60886;55.034;73.150;2023-03-20T15:56:58;-5.54;65.75
72762;SHT30;60886;55.034;73.150;2023-03-20T16:00:16;-5.49;65.07
72762;SHT30;60886;55.034;73.150;2023-03-20T16:03:23;-5.59;65.26
72762;SHT30;60886;55.034;73.150;2023-03-20T16:06:26;-5.60;64.83
72762;SHT30;60886;55.034;73.150;2023-03-20T16:09:43;-5.56;63.97
72762;SHT30;60886;55.034;73.150;2023-03-20T16:12:49;-5.51;64.08
72762;SHT30;60886;55.034;73.150;2023-03-20T16:19:29;-5.56;63.48
72762;SHT30;60886;55.034;73.150;2023-03-20T16:22:33;-5.59;63.44
72762;SHT30;60886;55.034;73.150;2023-03-20T16:25:43;-5.54;63.29
72762;SHT30;60886;55.034;73.150;2023-03-20T16:28:57;-5.66;62.81
72762;SHT30;60886;55.034;73.150;2023-03-20T16:53:43;-6.06;62.46
72762;SHT30;60886;55.034;73.150;2023-03-20T16:56:57;-6.24;61.77
72762;SHT30;60886;55.034;73.150;2023-03-20T17:00:07;-6.28;62.33
72762;SHT30;60886;55.034;73.150;2023-03-20T17:03:44;-6.40;61.49
72762;SHT30;60886;55.034;73.150;2023-03-20T17:10:25;-6.49;61.30
72762;SHT30;60886;55.034;73.150;2023-03-20T17:13:33;-6.49;61.85
72762;SHT30;60886;55.034;73.150;2023-03-20T17:16:43;-6.60;61.66
72762;SHT30;60886;55.034;73.150;2023-03-20T17:20:05;-6.74;62.13
72762;SHT30;60886;55.034;73.150;2023-03-20T17:23:20;-6.78;61.72
72762;SHT30;60886;55.034;73.150;2023-03-20T17:26:50;-6.72;61.41
72762;SHT30;60886;55.034;73.150;2023-03-20T17:54:44;-7.19;61.34
72762;SHT30;60886;55.034;73.150;2023-03-20T17:57:58;-7.09;61.68
72762;SHT30;60886;55.034;73.150;2023-03-20T18:18:36;-7.66;62.02
72762;SHT30;60886;55.034;73.150;2023-03-20T18:23:33;-7.81;62.84
72762;SHT30;60886;55.034;73.150;2023-03-20T18:26:36;-7.70;62.98
72762;SHT30;60886;55.034;73.150;2023-03-20T18:29:47;-7.54;62.05
72762;SHT30;60886;55.034;73.150;2023-03-20T18:33:56;-7.51;61.92
72762;SHT30;60886;55.034;73.150;2023-03-20T18:37:16;-7.81;62.50
72762;SHT30;60886;55.034;73.150;2023-03-20T18:49:39;-7.91;62.20
72762;SHT30;60886;55.034;73.150;2023-03-20T18:52:44;-8.01;61.86
72762;SHT30;60886;55.034;73.150;2023-03-20T18:55:59;-8.12;62.42
72762;SHT30;60886;55.034;73.150;2023-03-20T18:59:11;-8.24;63.39
72762;SHT30;60886;55.034;73.150;2023-03-20T19:02:25;-8.30;63.06
72762;SHT30;60886;55.034;73.150;2023-03-20T19:08:23;-8.11;62.72
72762;SHT30;60886;55.034;73.150;2023-03-20T19:11:58;-8.18;62.38
72762;SHT30;60886;55.034;73.150;2023-03-20T19:19:46;-8.16;62.01
72762;SHT30;60886;55.034;73.150;2023-03-20T19:22:56;-8.14;62.48
72762;SHT30;60886;55.034;73.150;2023-03-20T19:26:15;-8.29;62.41
72762;SHT30;60886;55.034;73.150;2023-03-20T19:29:19;-8.28;62.19
72762;SHT30;60886;55.034;73.150;2023-03-20T19:32:25;-8.30;62.77
72762;SHT30;60886;55.034;73.150;2023-03-20T19:35:39;-8.48;62.36
72762;SHT30;60886;55.034;73.150;2023-03-20T19:38:40;-8.46;62.43
72762;SHT30;60886;55.034;73.150;2023-03-20T19:41:44;-8.64;62.84
72762;SHT30;60886;55.034;73.150;2023-03-20T19:44:51;-8.60;63.56
72762;SHT30;60886;55.034;73.150;2023-03-20T19:48:01;-8.69;63.18
72762;SHT30;60886;55.034;73.150;2023-03-20T19:51:16;-8.81;63.23
72762;SHT30;60886;55.034;73.150;2023-03-20T19:54:19;-8.94;63.48
72762;SHT30;60886;55.034;73.150;2023-03-20T19:57:29;-8.99;64.19
72762;SHT30;60886;55.034;73.150;2023-03-20T20:00:31;-9.04;63.78
72762;SHT30;60886;55.034;73.150;2023-03-20T20:03:34;-8.96;63.63
72762;SHT30;60886;55.034;73.150;2023-03-20T20:06:36;-8.87;64.20
72762;SHT30;60886;55.034;73.150;2023-03-20T20:09:39;-8.99;63.45
72762;SHT30;60886;55.034;73.150;2023-03-20T20:12:41;-9.13;64.05
72762;SHT30;60886;55.034;73.150;2023-03-20T20:15:44;-9.04;64.30
72762;SHT30;60886;55.034;73.150;2023-03-20T20:18:51;-9.28;64.24
72762;SHT30;60886;55.034;73.150;2023-03-20T20:21:54;-9.31;64.26
72762;SHT30;60886;55.034;73.150;2023-03-20T20:25:52;-9.41;64.99
72762;SHT30;60886;55.034;73.150;2023-03-20T20:28:54;-9.39;64.41
72762;SHT30;60886;55.034;73.150;2023-03-20T20:31:58;-9.52;64.95
72762;SHT30;60886;55.034;73.150;2023-03-20T20:35:00;-9.44;65.69
72762;SHT30;60886;55.034;73.150;2023-03-20T20:38:05;-9.44;65.26
72762;SHT30;60886;55.034;73.150;2023-03-20T20:41:19;-9.35;65.20
72762;SHT30;60886;55.034;73.150;2023-03-20T20:44:28;-9.28;64.91
72762;SHT30;60886;55.034;73.150;2023-03-20T20:47:50;-9.27;64.97
72762;SHT30;60886;55.034;73.150;2023-03-20T20:55:39;-8.96;64.26
72762;SHT30;60886;55.034;73.150;2023-03-20T20:58:55;-8.87;63.92
72762;SHT30;60886;55.034;73.150;2023-03-20T21:02:00;-8.70;63.26
72762;SHT30;60886;55.034;73.150;2023-03-20T21:05:02;-8.61;63.38
72762;SHT30;60886;55.034;73.150;2023-03-20T21:08:04;-8.56;62.82
72762;SHT30;60886;55.034;73.150;2023-03-20T21:11:11;-8.50;63.01
72762;SHT30;60886;55.034;73.150;2023-03-20T21:14:24;-8.61;63.38
72762;SHT30;60886;55.034;73.150;2023-03-20T21:17:27;-8.42;63.34
72762;SHT30;60886;55.034;73.150;2023-03-20T21:20:30;-8.45;62.55
72762;SHT30;60886;55.034;73.150;2023-03-20T21:23:36;-8.53;62.39
72762;SHT30;60886;55.034;73.150;2023-03-20T21:26:47;-8.81;63.22
72762;SHT30;60886;55.034;73.150;2023-03-20T21:29:51;-8.93;63.34
72762;SHT30;60886;55.034;73.150;2023-03-20T21:32:55;-8.87;63.74
72762;SHT30;60886;55.034;73.150;2023-03-20T21:36:00;-8.91;63.03
72762;SHT30;60886;55.034;73.150;2023-03-20T21:39:08;-8.90;63.86
72762;SHT30;60886;55.034;73.150;2023-03-20T21:42:11;-9.01;63.64
72762;SHT30;60886;55.034;73.150;2023-03-20T21:45:15;-9.11;63.98
72762;SHT30;60886;55.034;73.150;2023-03-20T21:48:31;-8.99;63.86
72762;SHT30;60886;55.034;73.150;2023-03-20T21:51:40;-8.96;63.78
72762;SHT30;60886;55.034;73.150;2023-03-20T21:54:42;-8.74;63.69
72762;SHT30;60886;55.034;73.150;2023-03-20T21:57:56;-8.70;62.79
72762;SHT30;60886;55.034;73.150;2023-03-20T22:01:10;-8.73;61.88
72762;SHT30;60886;55.034;73.150;2023-03-20T22:04:26;-8.66;62.39
72762;SHT30;60886;55.034;73.150;2023-03-20T22:07:28;-8.45;60.91
72762;SHT30;60886;55.034;73.150;2023-03-20T22:10:31;-8.42;61.50
72762;SHT30;60886;55.034;73.150;2023-03-20T22:13:38;-8.38;61.50
72762;SHT30;60886;55.034;73.150;2023-03-20T22:17:01;-8.52;62.17
72762;SHT30;60886;55.034;73.150;2023-03-20T22:20:15;-8.77;62.05
72762;SHT30;60886;55.034;73.150;2023-03-20T22:23:16;-8.87;63.15
72762;SHT30;60886;55.034;73.150;2023-03-20T22:26:18;-8.89;62.37
72762;SHT30;60886;55.034;73.150;2023-03-20T22:29:20;-8.87;61.40
72762;SHT30;60886;55.034;73.150;2023-03-20T22:32:21;-8.81;61.41
72762;SHT30;60886;55.034;73.150;2023-03-20T22:35:23;-8.80;61.22
72762;SHT30;60886;55.034;73.150;2023-03-20T22:38:25;-8.86;61.82
72762;SHT30;60886;55.034;73.150;2023-03-20T22:41:27;-8.89;62.23
72762;SHT30;60886;55.034;73.150;2023-03-20T22:44:39;-9.01;62.73
72762;SHT30;60886;55.034;73.150;2023-03-20T22:47:41;-8.99;61.47
72762;SHT30;60886;55.034;73.150;2023-03-20T22:50:48;-8.99;62.28
72762;SHT30;60886;55.034;73.150;2023-03-20T22:53:50;-9.08;62.02
72762;SHT30;60886;55.034;73.150;2023-03-20T22:56:51;-9.18;61.50
72762;SHT30;60886;55.034;73.150;2023-03-20T22:59:53;-9.13;61.70
72762;SHT30;60886;55.034;73.150;2023-03-20T23:02:54;-9.27;62.05
72762;SHT30;60886;55.034;73.150;2023-03-20T23:05:56;-9.49;62.11
72762;SHT30;60886;55.034;73.150;2023-03-20T23:08:58;-9.59;62.64
72762;SHT30;60886;55.034;73.150;2023-03-20T23:12:03;-9.48;62.39
72762;SHT30;60886;55.034;73.150;2023-03-20T23:15:15;-9.32;61.51